createdAt,value
2023-04-10T11:59:35.442Z,47.33
2023-04-10T12:05:05.438Z,45.85
2023-04-10T12:10:08.117Z,45.77
2023-04-10T12:15:37.768Z,45.05
2023-04-10T12:26:52.798Z,43.71
2023-04-10T12:31:54.631Z,44.50
2023-04-10T12:36:56.309Z,44.80
2023-04-10T12:42:23.077Z,43.79
2023-04-10T12:47:25.088Z,44.56
2023-04-10T12:52:26.807Z,44.13
2023-04-10T12:57:30.983Z,43.88
2023-04-10T13:02:32.983Z,44.33
2023-04-10T13:07:39.188Z,44.41
2023-04-10T13:12:40.878Z,44.06
2023-04-10T13:17:42.644Z,43.98
2023-04-10T13:22:44.787Z,43.84
2023-04-10T13:27:46.485Z,44.07
2023-04-10T13:32:51.270Z,43.81
2023-04-10T13:37:52.865Z,43.55
2023-04-10T13:42:55.110Z,43.64
2023-04-10T13:47:56.885Z,43.40
2023-04-10T13:52:58.862Z,43.26
2023-04-10T13:58:00.539Z,42.88
2023-04-10T14:03:02.367Z,43.02
2023-04-10T14:08:04.720Z,43.02
2023-04-10T14:13:08.860Z,43.39
2023-04-10T14:18:10.665Z,43.04
2023-04-10T14:23:36.294Z,42.28
2023-04-10T14:28:38.063Z,42.91
2023-04-10T14:33:42.393Z,42.79
2023-04-10T14:38:46.849Z,42.64
2023-04-10T14:43:54.376Z,42.67
2023-04-10T14:48:56.281Z,42.87
2023-04-10T14:53:59.004Z,42.77
2023-04-10T14:59:00.712Z,42.56
2023-04-10T15:04:14.169Z,42.72
2023-04-10T15:09:15.946Z,43.12
2023-04-10T15:14:17.643Z,42.35
2023-04-10T15:19:19.534Z,41.32
2023-04-10T15:24:21.266Z,41.03
2023-04-10T15:29:23.068Z,41.65
2023-04-10T15:34:26.366Z,41.46
2023-04-10T15:39:35.745Z,41.32
2023-04-10T15:44:49.662Z,41.47
2023-04-10T15:49:54.154Z,41.09
2023-04-10T15:54:59.943Z,41.56
2023-04-10T16:00:08.205Z,41.35
2023-04-10T16:05:12.337Z,41.00
2023-04-10T16:10:14.261Z,41.52
2023-04-10T16:15:19.388Z,41.24
2023-04-10T16:20:21.162Z,41.26
2023-04-10T16:25:25.497Z,40.82
2023-04-10T16:30:27.164Z,41.16
2023-04-10T16:35:28.934Z,41.30
2023-04-10T16:40:37.989Z,41.54
2023-04-10T16:45:40.623Z,41.68
2023-04-10T16:50:42.244Z,42.06
2023-04-10T16:55:46.502Z,42.10
2023-04-10T17:00:53.642Z,42.61
2023-04-10T17:05:55.356Z,42.72
2023-04-10T17:10:57.221Z,43.27
2023-04-10T17:15:59.336Z,43.37
2023-04-10T17:21:04.375Z,43.69
2023-04-10T17:26:06.853Z,43.78
2023-04-10T17:31:08.605Z,44.13
2023-04-10T17:36:21.692Z,44.07
2023-04-10T17:41:24.397Z,44.26
2023-04-10T17:46:26.088Z,44.41
2023-04-10T17:51:27.755Z,44.49
2023-04-10T17:56:33.468Z,44.52
2023-04-10T18:01:36.280Z,44.93
2023-04-10T18:06:40.858Z,45.31
2023-04-10T18:11:42.567Z,45.46
2023-04-10T18:16:45.721Z,45.69
2023-04-10T18:21:49.740Z,45.77
2023-04-10T18:26:51.489Z,45.97
2023-04-10T18:31:55.551Z,46.10
2023-04-10T18:36:57.184Z,45.97
2023-04-10T18:42:01.705Z,46.43
2023-04-10T18:47:04.777Z,47.20
2023-04-10T18:52:06.851Z,47.17
2023-04-10T18:57:16.935Z,48.15
2023-04-10T19:02:22.305Z,48.00
2023-04-10T19:12:40.446Z,47.83
2023-04-10T19:17:44.433Z,48.47
2023-04-10T19:22:53.332Z,48.16
2023-04-10T19:27:55.162Z,48.69
2023-04-10T19:32:59.854Z,48.56
2023-04-10T19:38:01.522Z,49.40
2023-04-10T19:43:03.221Z,49.18
2023-04-10T19:48:05.074Z,48.81
2023-04-10T19:53:09.887Z,48.71
2023-04-10T19:58:25.300Z,48.57
2023-04-10T20:03:33.480Z,48.28
2023-04-10T20:08:35.320Z,48.45
2023-04-10T20:13:37.193Z,48.46
2023-04-10T20:18:46.002Z,48.42
2023-04-10T20:23:51.574Z,48.26
2023-04-10T20:28:54.933Z,48.48
2023-04-10T20:33:56.880Z,48.70
2023-04-10T20:39:01.579Z,48.65
2023-04-10T20:44:07.342Z,48.42
2023-04-10T20:49:10.160Z,48.53
2023-04-10T20:54:25.254Z,48.52
2023-04-10T20:59:29.318Z,48.36
2023-04-10T21:04:34.050Z,48.69
2023-04-10T21:09:36.082Z,48.41
2023-04-10T21:14:37.941Z,48.54
2023-04-10T21:19:45.815Z,48.48
2023-04-10T21:24:59.664Z,49.24
2023-04-10T21:30:01.680Z,49.39
2023-04-10T21:35:08.643Z,49.43
2023-04-10T21:40:10.554Z,49.58
2023-04-10T21:45:12.211Z,49.63
2023-04-10T21:50:13.880Z,50.38
2023-04-10T21:55:20.771Z,50.29
2023-04-10T22:00:24.215Z,50.22
2023-04-10T22:05:32.257Z,49.83
2023-04-10T22:10:35.075Z,50.23
2023-04-10T22:15:37.047Z,50.62
2023-04-10T22:20:42.578Z,50.33
2023-04-10T22:25:44.416Z,50.61
2023-04-10T22:30:51.800Z,50.57
2023-04-10T22:36:04.467Z,50.65
2023-04-10T22:41:09.540Z,51.33
2023-04-10T22:46:11.674Z,50.77
2023-04-10T22:51:18.572Z,50.92
2023-04-10T22:56:20.289Z,51.04
2023-04-10T23:01:22.168Z,51.03
2023-04-10T23:06:25.365Z,51.07
2023-04-10T23:11:27.192Z,50.96
2023-04-10T23:16:35.903Z,51.14
2023-04-10T23:21:38.494Z,51.22
2023-04-10T23:26:40.329Z,51.02
2023-04-10T23:31:46.770Z,51.23
2023-04-10T23:36:50.244Z,51.10
2023-04-10T23:41:52.022Z,51.08
2023-04-10T23:46:53.798Z,51.04
2023-04-10T23:51:55.445Z,51.08
2023-04-10T23:56:59.144Z,51.01
